createdAt,value
2022-12-03T00:01:44.424Z,37.87
2022-12-03T00:04:14.031Z,40.77
2022-12-03T00:06:42.538Z,44.90
2022-12-03T00:09:10.839Z,45.83
2022-12-03T00:11:39.071Z,42.33
2022-12-03T00:14:07.419Z,40.37
2022-12-03T00:16:35.612Z,39.53
2022-12-03T00:19:04.035Z,38.90
2022-12-03T00:21:36.777Z,39.50
2022-12-03T00:24:05.261Z,42.40
2022-12-03T00:26:33.486Z,38.13
2022-12-03T00:29:04.461Z,43.50
2022-12-03T00:31:32.765Z,40.50
2022-12-03T00:34:01.173Z,42.50
2022-12-03T00:36:29.430Z,43.30
2022-12-03T00:38:59.089Z,39.67
2022-12-03T00:41:27.368Z,36.03
2022-12-03T00:43:57.577Z,39.23
2022-12-03T00:46:25.911Z,38.50
2022-12-03T00:48:54.506Z,36.70
2022-12-03T00:51:22.942Z,37.93
2022-12-03T00:53:51.175Z,40.77
2022-12-03T00:56:20.851Z,32.83
2022-12-03T00:58:49.563Z,33.93
2022-12-03T01:01:17.898Z,39.10
2022-12-03T01:03:46.262Z,35.13
2022-12-03T01:06:14.489Z,37.97
2022-12-03T01:08:42.753Z,35.07
2022-12-03T01:11:30.975Z,42.57
2022-12-03T01:14:00.626Z,35.07
2022-12-03T01:16:28.960Z,37.33
2022-12-03T01:18:57.219Z,36.93
2022-12-03T01:21:25.503Z,30.90
2022-12-03T01:23:53.839Z,36.13
2022-12-03T01:26:22.158Z,34.60
2022-12-03T01:28:50.458Z,37.23
2022-12-03T01:31:38.100Z,34.20
2022-12-03T01:34:07.138Z,33.50
2022-12-03T01:36:35.433Z,35.23
2022-12-03T01:39:04.953Z,34.67
2022-12-03T01:41:58.784Z,29.93
2022-12-03T01:44:30.102Z,34.13
2022-12-03T01:47:02.966Z,31.77
2022-12-03T01:49:35.213Z,30.30
2022-12-03T01:52:03.545Z,29.87
2022-12-03T01:54:39.399Z,29.00
2022-12-03T01:57:18.371Z,28.37
2022-12-03T01:59:46.820Z,26.00
2022-12-03T02:02:22.154Z,27.47
2022-12-03T02:04:52.235Z,26.93
2022-12-03T02:07:23.754Z,23.83
2022-12-03T02:09:52.384Z,23.83
2022-12-03T02:12:26.008Z,26.17
2022-12-03T02:14:55.620Z,26.83
2022-12-03T02:17:26.412Z,24.23
2022-12-03T02:19:55.325Z,22.47
2022-12-03T02:22:38.394Z,21.67
2022-12-03T02:25:19.239Z,23.00
2022-12-03T02:27:49.508Z,21.50
2022-12-03T02:30:20.167Z,20.63
2022-12-03T02:32:49.501Z,19.60
2022-12-03T02:35:19.715Z,21.17
2022-12-03T02:37:51.765Z,18.53
2022-12-03T02:40:23.456Z,18.73
2022-12-03T02:42:54.736Z,17.93
2022-12-03T02:45:25.372Z,22.87
2022-12-03T02:47:58.404Z,19.33
2022-12-03T02:50:33.967Z,20.00
2022-12-03T02:53:04.555Z,22.10
2022-12-03T02:55:37.501Z,19.60
2022-12-03T02:58:07.249Z,21.80
2022-12-03T03:00:37.306Z,19.53
2022-12-03T03:03:09.417Z,23.57
2022-12-03T03:05:39.521Z,20.50
2022-12-03T03:08:09.300Z,21.17
2022-12-03T03:10:40.704Z,21.43
2022-12-03T03:13:12.104Z,22.87
2022-12-03T03:15:41.357Z,23.87
2022-12-03T03:18:10.970Z,18.97
2022-12-03T03:21:04.293Z,24.40
2022-12-03T03:23:32.565Z,19.13
2022-12-03T03:26:06.501Z,21.00
2022-12-03T03:28:39.045Z,21.63
2022-12-03T03:31:09.379Z,17.40
2022-12-03T03:33:38.955Z,18.50
2022-12-03T03:36:08.221Z,19.70
2022-12-03T03:38:37.650Z,19.63
2022-12-03T03:41:09.274Z,20.03
2022-12-03T03:43:39.685Z,17.57
2022-12-03T03:46:08.793Z,19.80
2022-12-03T03:48:37.400Z,19.67
2022-12-03T03:51:09.491Z,17.37
2022-12-03T03:53:40.044Z,18.33
2022-12-03T03:56:10.532Z,16.47
2022-12-03T03:58:39.500Z,17.30
2022-12-03T04:01:08.017Z,15.97
2022-12-03T04:03:36.571Z,15.80
2022-12-03T04:06:05.304Z,23.67
2022-12-03T04:08:33.557Z,20.57
2022-12-03T04:11:19.124Z,19.67
2022-12-03T04:14:13.316Z,19.97
2022-12-03T04:16:41.631Z,22.20
2022-12-03T04:19:09.897Z,18.40
2022-12-03T04:21:51.976Z,19.43
2022-12-03T04:24:20.254Z,16.87
2022-12-03T04:27:05.939Z,16.33
2022-12-03T04:29:35.534Z,17.47
2022-12-03T04:32:21.704Z,18.83
2022-12-03T04:35:07.166Z,16.97
2022-12-03T04:37:35.437Z,18.70
2022-12-03T04:40:23.744Z,18.27
2022-12-03T04:42:51.948Z,18.97
2022-12-03T04:45:21.566Z,17.53
2022-12-03T04:47:49.846Z,17.27
2022-12-03T04:50:18.255Z,18.27
2022-12-03T04:52:46.532Z,18.13
2022-12-03T04:55:27.046Z,18.20
2022-12-03T04:57:55.380Z,17.53
2022-12-03T05:00:25.246Z,17.43
2022-12-03T05:02:53.561Z,16.33
2022-12-03T05:05:21.946Z,16.13
2022-12-03T05:07:50.286Z,16.23
2022-12-03T05:10:18.685Z,16.07
2022-12-03T05:12:47.003Z,15.93
2022-12-03T05:15:15.218Z,15.70
2022-12-03T05:17:44.903Z,14.77
2022-12-03T05:20:32.072Z,16.40
2022-12-03T05:23:00.347Z,19.43
2022-12-03T05:25:28.550Z,15.87
2022-12-03T05:27:56.847Z,18.03
2022-12-03T05:30:25.178Z,20.53
2022-12-03T05:32:55.085Z,19.17
2022-12-03T05:35:23.298Z,21.70
2022-12-03T05:37:51.695Z,25.40
2022-12-03T05:40:20.291Z,22.10
2022-12-03T05:42:57.219Z,24.67
2022-12-03T05:45:27.004Z,23.57
2022-12-03T05:47:57.804Z,23.30
2022-12-03T05:50:28.246Z,22.87
2022-12-03T05:52:56.856Z,24.13
2022-12-03T05:55:25.540Z,20.57
2022-12-03T05:58:07.000Z,18.17
2022-12-03T06:00:42.314Z,22.20
2022-12-03T06:03:12.659Z,18.27
2022-12-03T06:05:40.889Z,16.97
2022-12-03T06:08:09.226Z,18.20
2022-12-03T06:10:37.576Z,17.27
2022-12-03T06:13:05.823Z,17.30
2022-12-03T06:15:37.505Z,17.10
2022-12-03T06:18:26.789Z,19.77
2022-12-03T06:20:55.075Z,14.17
2022-12-03T06:23:23.443Z,12.63
2022-12-03T06:25:51.771Z,10.93
2022-12-03T06:28:20.108Z,11.93
2022-12-03T06:30:48.424Z,15.10
2022-12-03T06:33:16.649Z,15.07
2022-12-03T06:35:46.292Z,16.30
2022-12-03T06:38:14.521Z,17.50
2022-12-03T06:40:42.807Z,10.73
2022-12-03T06:43:11.006Z,17.20
2022-12-03T06:45:42.146Z,12.50
2022-12-03T06:48:14.467Z,23.63
2022-12-03T06:50:42.679Z,25.97
2022-12-03T06:53:12.401Z,15.63
2022-12-03T06:55:40.741Z,7.53
2022-12-03T06:58:09.054Z,8.40
2022-12-03T07:00:37.336Z,28.40
2022-12-03T07:03:05.711Z,10.63
2022-12-03T07:05:34.066Z,7.70
2022-12-03T07:08:02.412Z,9.27
2022-12-03T07:10:32.162Z,9.63
2022-12-03T07:13:00.483Z,8.00
2022-12-03T07:15:28.742Z,8.23
2022-12-03T07:17:57.016Z,19.00
2022-12-03T07:20:25.313Z,12.77
2022-12-03T07:22:53.660Z,9.43
2022-12-03T07:25:23.681Z,9.90
2022-12-03T07:27:53.577Z,8.90
2022-12-03T07:30:23.574Z,7.33
2022-12-03T07:32:52.305Z,8.73
2022-12-03T07:35:20.555Z,8.93
2022-12-03T07:37:48.914Z,8.53
2022-12-03T07:40:17.371Z,11.03
2022-12-03T07:42:45.651Z,11.13
2022-12-03T07:45:15.308Z,19.57
2022-12-03T07:47:43.616Z,11.57
2022-12-03T07:50:12.609Z,10.93
2022-12-03T07:52:40.890Z,9.20
2022-12-03T07:55:11.727Z,13.57
2022-12-03T07:57:39.984Z,11.07
2022-12-03T08:00:09.336Z,11.77
2022-12-03T08:02:39.051Z,11.53
2022-12-03T08:05:19.487Z,9.90
2022-12-03T08:07:47.834Z,13.17
2022-12-03T08:10:16.136Z,8.00
2022-12-03T08:12:44.413Z,13.93
2022-12-03T08:15:15.640Z,10.30
2022-12-03T08:17:46.216Z,8.30
2022-12-03T08:20:17.621Z,17.27
2022-12-03T08:22:47.739Z,11.07
2022-12-03T08:25:21.096Z,14.73
2022-12-03T08:27:49.539Z,14.40
2022-12-03T08:30:18.914Z,22.17
2022-12-03T08:33:19.671Z,16.50
2022-12-03T08:35:51.806Z,13.67
2022-12-03T08:38:23.107Z,12.40
2022-12-03T08:40:52.741Z,9.87
2022-12-03T08:43:21.931Z,14.23
2022-12-03T08:45:51.814Z,24.57
2022-12-03T08:48:27.899Z,18.23
2022-12-03T08:50:57.669Z,18.13
2022-12-03T08:53:37.933Z,13.27
2022-12-03T08:56:20.400Z,12.07
2022-12-03T08:58:50.037Z,18.10
2022-12-03T09:01:46.283Z,17.87
2022-12-03T09:04:31.207Z,29.60
2022-12-03T09:06:59.678Z,23.57
2022-12-03T09:09:28.072Z,9.90
2022-12-03T09:11:56.700Z,15.13
2022-12-03T09:14:25.043Z,14.70
2022-12-03T09:16:55.974Z,27.80
2022-12-03T09:19:27.634Z,22.60
2022-12-03T09:21:56.289Z,16.83
2022-12-03T09:24:24.644Z,26.03
2022-12-03T09:26:52.893Z,19.43
2022-12-03T09:29:21.256Z,18.40
2022-12-03T09:31:49.599Z,17.00
2022-12-03T09:34:17.967Z,16.43
2022-12-03T09:36:47.664Z,13.20
2022-12-03T09:39:15.930Z,17.47
2022-12-03T09:41:44.566Z,18.93
2022-12-03T09:44:17.458Z,18.03
2022-12-03T09:46:49.033Z,18.83
2022-12-03T09:49:18.842Z,20.03
2022-12-03T09:51:48.660Z,19.20
2022-12-03T09:54:24.293Z,21.63
2022-12-03T09:56:53.509Z,16.70
2022-12-03T09:59:22.808Z,19.80
2022-12-03T10:01:51.405Z,17.50
2022-12-03T10:04:19.949Z,17.20
2022-12-03T10:06:49.837Z,17.23
2022-12-03T10:09:23.701Z,17.60
2022-12-03T10:11:51.991Z,19.37
2022-12-03T10:14:21.454Z,18.70
2022-12-03T10:16:50.079Z,23.80
2022-12-03T10:19:23.035Z,18.90
2022-12-03T10:21:52.878Z,31.10
2022-12-03T10:24:26.853Z,25.50
2022-12-03T10:26:56.483Z,21.83
2022-12-03T10:29:31.655Z,19.70
2022-12-03T10:32:03.839Z,20.97
2022-12-03T10:34:34.407Z,21.20
2022-12-03T10:37:13.584Z,20.67
2022-12-03T10:40:05.420Z,22.53
2022-12-03T10:42:34.894Z,33.30
2022-12-03T10:45:16.703Z,21.27
2022-12-03T10:48:01.674Z,23.20
2022-12-03T10:50:30.057Z,28.93
2022-12-03T10:52:59.764Z,27.60
2022-12-03T10:55:29.921Z,22.13
2022-12-03T10:57:58.883Z,32.47
2022-12-03T11:00:27.202Z,26.33
2022-12-03T11:02:57.204Z,32.43
2022-12-03T11:05:28.237Z,38.30
2022-12-03T11:07:57.755Z,33.33
2022-12-03T11:10:27.461Z,28.73
2022-12-03T11:13:32.020Z,33.00
2022-12-03T11:16:00.837Z,32.33
2022-12-03T11:19:01.253Z,31.57
2022-12-03T11:21:32.591Z,29.10
2022-12-03T11:24:19.592Z,29.00
2022-12-03T11:27:48.224Z,32.27
2022-12-03T11:31:02.259Z,32.60
2022-12-03T11:33:32.287Z,36.47
2022-12-03T11:36:16.271Z,31.37
2022-12-03T11:38:54.021Z,25.93
2022-12-03T11:41:33.768Z,27.33
2022-12-03T11:44:30.316Z,32.03
2022-12-03T11:47:17.097Z,20.73
2022-12-03T11:49:49.845Z,19.53
2022-12-03T11:52:44.118Z,18.73
2022-12-03T11:55:18.623Z,18.57
2022-12-03T11:57:47.018Z,24.73
2022-12-03T12:00:20.618Z,19.50
2022-12-03T12:02:51.470Z,21.53
2022-12-03T12:05:24.456Z,18.57
2022-12-03T12:07:53.113Z,21.83
2022-12-03T12:10:44.340Z,20.03
2022-12-03T12:13:43.436Z,21.40
2022-12-03T12:16:12.288Z,22.67
2022-12-03T12:18:44.176Z,21.27
2022-12-03T12:21:41.372Z,24.23
2022-12-03T12:24:36.391Z,18.33
2022-12-03T12:27:07.569Z,19.93
2022-12-03T12:29:36.337Z,21.33
2022-12-03T12:32:15.186Z,19.93
2022-12-03T12:34:47.355Z,16.30
2022-12-03T12:37:21.455Z,16.47
2022-12-03T12:39:50.062Z,16.03
2022-12-03T12:42:37.956Z,15.57
2022-12-03T12:45:17.347Z,15.70
2022-12-03T12:47:50.362Z,18.10
2022-12-03T12:50:20.999Z,26.13
2022-12-03T12:52:54.933Z,19.73
2022-12-03T12:55:24.562Z,23.70
2022-12-03T12:57:53.206Z,16.40
2022-12-03T13:00:23.825Z,16.43
2022-12-03T13:02:55.575Z,27.73
2022-12-03T13:05:27.682Z,37.47
2022-12-03T13:07:56.901Z,36.50
2022-12-03T13:10:40.267Z,18.10
2022-12-03T13:13:20.130Z,21.53
2022-12-03T13:15:58.429Z,18.27
2022-12-03T13:18:40.733Z,19.37
2022-12-03T13:21:38.933Z,17.17
2022-12-03T13:24:33.637Z,17.30
2022-12-03T13:27:06.596Z,13.57
2022-12-03T13:29:34.946Z,16.90
2022-12-03T13:32:11.227Z,19.27
2022-12-03T13:34:39.526Z,15.67
2022-12-03T13:37:15.085Z,19.37
2022-12-03T13:39:49.212Z,16.57
2022-12-03T13:42:41.918Z,18.10
2022-12-03T13:45:30.807Z,22.70
2022-12-03T13:48:00.635Z,20.50
2022-12-03T13:50:35.147Z,23.80
2022-12-03T13:53:14.576Z,22.20
2022-12-03T13:55:46.536Z,44.93
2022-12-03T13:58:15.032Z,23.77
2022-12-03T14:00:43.368Z,27.73
2022-12-03T14:03:11.800Z,28.50
2022-12-03T14:05:40.196Z,20.43
2022-12-03T14:08:09.824Z,20.80
2022-12-03T14:10:38.134Z,28.20
2022-12-03T14:13:06.321Z,27.60
2022-12-03T14:15:34.523Z,19.60
2022-12-03T14:18:02.771Z,25.70
2022-12-03T14:20:31.018Z,20.63
2022-12-03T14:23:26.001Z,18.60
2022-12-03T14:25:54.208Z,28.33
2022-12-03T14:28:22.600Z,39.87
2022-12-03T14:30:50.888Z,30.97
2022-12-03T14:33:19.125Z,22.93
2022-12-03T14:35:47.470Z,30.10
2022-12-03T14:38:15.730Z,24.93
2022-12-03T14:40:45.343Z,22.83
2022-12-03T14:43:13.618Z,19.20
2022-12-03T14:45:41.971Z,22.50
2022-12-03T14:48:10.340Z,24.13
2022-12-03T14:50:38.557Z,22.13
2022-12-03T14:53:06.762Z,16.17
2022-12-03T14:55:34.989Z,21.77
2022-12-03T14:58:04.792Z,24.53
2022-12-03T15:00:33.019Z,20.43
2022-12-03T15:03:01.273Z,27.93
2022-12-03T15:05:29.636Z,27.57
2022-12-03T15:07:57.995Z,23.23
2022-12-03T15:10:51.165Z,25.50
2022-12-03T15:13:20.803Z,17.43
2022-12-03T15:15:49.059Z,19.67
2022-12-03T15:18:17.323Z,15.93
2022-12-03T15:20:45.630Z,17.93
2022-12-03T15:23:14.749Z,18.23
2022-12-03T15:25:43.316Z,17.10
2022-12-03T15:28:11.672Z,26.87
2022-12-03T15:30:41.306Z,22.97
2022-12-03T15:33:09.530Z,18.93
2022-12-03T15:35:37.841Z,24.73
2022-12-03T15:38:06.020Z,21.57
2022-12-03T15:40:34.234Z,21.23
2022-12-03T15:43:02.464Z,29.20
2022-12-03T15:45:30.668Z,19.50
2022-12-03T15:48:00.341Z,19.50
2022-12-03T15:50:29.191Z,21.73
2022-12-03T15:52:57.403Z,25.50
2022-12-03T15:55:25.764Z,18.20
2022-12-03T15:57:54.030Z,21.20
2022-12-03T16:00:47.188Z,23.30
2022-12-03T16:03:16.894Z,23.50
2022-12-03T16:05:45.206Z,24.23
2022-12-03T16:08:13.671Z,22.73
2022-12-03T16:10:41.896Z,23.87
2022-12-03T16:13:10.135Z,29.33
2022-12-03T16:15:38.365Z,26.93
2022-12-03T16:18:06.732Z,25.83
2022-12-03T16:20:36.426Z,23.83
2022-12-03T16:23:04.708Z,22.97
2022-12-03T16:25:32.909Z,22.47
2022-12-03T16:28:01.103Z,20.93
2022-12-03T16:30:29.345Z,27.07
2022-12-03T16:32:57.589Z,25.83
2022-12-03T16:35:25.843Z,23.70
2022-12-03T16:37:55.465Z,26.60
2022-12-03T16:40:23.799Z,23.93
2022-12-03T16:42:51.994Z,20.87
2022-12-03T16:45:33.626Z,24.13
2022-12-03T16:48:02.941Z,23.87
2022-12-03T16:50:31.138Z,24.30
2022-12-03T16:53:00.747Z,22.90
2022-12-03T16:55:29.111Z,20.10
2022-12-03T16:57:57.394Z,18.90
2022-12-03T17:00:26.252Z,22.53
2022-12-03T17:02:54.570Z,21.23
2022-12-03T17:05:22.939Z,21.87
2022-12-03T17:07:51.245Z,19.63
2022-12-03T17:10:20.975Z,23.37
2022-12-03T17:13:08.799Z,20.97
2022-12-03T17:15:40.967Z,39.00
2022-12-03T17:18:09.688Z,29.43
2022-12-03T17:20:38.366Z,37.80
2022-12-03T17:23:06.581Z,25.20
2022-12-03T17:25:36.354Z,24.90
2022-12-03T17:28:04.651Z,22.33
2022-12-03T17:30:32.962Z,23.57
2022-12-03T17:33:01.273Z,21.33
2022-12-03T17:35:29.671Z,25.40
2022-12-03T17:37:57.946Z,19.40
2022-12-03T17:40:26.163Z,22.80
2022-12-03T17:42:55.818Z,21.83
2022-12-03T17:45:24.110Z,19.03
2022-12-03T17:47:52.370Z,19.17
2022-12-03T17:50:20.614Z,21.20
2022-12-03T17:52:48.850Z,23.83
2022-12-03T17:55:27.741Z,35.87
2022-12-03T17:58:00.879Z,43.13
2022-12-03T18:00:29.534Z,50.40
2022-12-03T18:02:59.258Z,43.63
2022-12-03T18:05:27.507Z,21.50
2022-12-03T18:07:55.744Z,20.10
2022-12-03T18:10:24.007Z,20.47
2022-12-03T18:12:54.806Z,18.03
2022-12-03T18:15:26.685Z,20.00
2022-12-03T18:17:54.888Z,15.73
2022-12-03T18:20:23.153Z,16.60
2022-12-03T18:22:51.423Z,19.30
2022-12-03T18:25:19.883Z,16.70
2022-12-03T18:27:48.223Z,23.97
2022-12-03T18:30:16.680Z,33.07
2022-12-03T18:32:46.257Z,23.73
2022-12-03T18:35:14.564Z,20.27
2022-12-03T18:37:42.871Z,20.20
2022-12-03T18:40:18.551Z,19.77
2022-12-03T18:42:46.916Z,22.63
2022-12-03T18:45:16.368Z,19.33
2022-12-03T18:47:46.464Z,19.00
2022-12-03T18:50:15.076Z,18.57
2022-12-03T18:52:43.284Z,23.80
2022-12-03T18:55:18.489Z,20.60
2022-12-03T18:57:47.067Z,24.90
2022-12-03T19:00:16.634Z,17.97
2022-12-03T19:03:02.322Z,21.33
2022-12-03T19:05:31.309Z,21.43
2022-12-03T19:07:59.820Z,23.13
2022-12-03T19:10:28.241Z,20.60
2022-12-03T19:12:56.496Z,23.60
2022-12-03T19:15:24.715Z,24.23
2022-12-03T19:17:54.362Z,23.20
2022-12-03T19:20:22.566Z,23.90
2022-12-03T19:22:50.822Z,22.60
2022-12-03T19:25:19.170Z,20.33
2022-12-03T19:27:49.258Z,23.43
2022-12-03T19:30:17.938Z,23.10
2022-12-03T19:32:46.525Z,22.93
2022-12-03T19:35:16.181Z,22.23
2022-12-03T19:37:46.320Z,18.17
2022-12-03T19:40:14.795Z,22.67
2022-12-03T19:42:43.290Z,22.97
2022-12-03T19:45:12.433Z,20.60
2022-12-03T19:47:41.048Z,22.67
2022-12-03T19:50:10.823Z,24.53
2022-12-03T19:52:44.795Z,25.23
2022-12-03T19:55:13.703Z,29.00
2022-12-03T19:57:41.945Z,22.80
2022-12-03T20:00:11.467Z,25.03
2022-12-03T20:02:39.782Z,25.60
2022-12-03T20:05:09.330Z,24.50
2022-12-03T20:07:37.612Z,33.23
2022-12-03T20:10:08.735Z,41.03
2022-12-03T20:12:36.932Z,40.07
2022-12-03T20:15:06.173Z,34.47
2022-12-03T20:17:34.386Z,35.57
2022-12-03T20:20:02.595Z,30.70
2022-12-03T20:22:30.842Z,31.13
2022-12-03T20:24:59.119Z,28.50
2022-12-03T20:27:28.698Z,35.43
2022-12-03T20:29:57.022Z,32.73
2022-12-03T20:32:25.389Z,30.80
2022-12-03T20:34:53.728Z,54.90
2022-12-03T20:37:21.923Z,49.00
2022-12-03T20:39:51.294Z,41.23
2022-12-03T20:42:19.542Z,39.50
2022-12-03T20:44:52.616Z,53.23
2022-12-03T20:47:21.269Z,46.13
2022-12-03T20:49:49.493Z,43.70
2022-12-03T20:52:17.734Z,41.07
2022-12-03T20:54:46.080Z,43.37
2022-12-03T20:57:14.325Z,47.43
2022-12-03T20:59:42.611Z,38.67
2022-12-03T21:02:12.496Z,37.93
2022-12-03T21:04:40.923Z,40.43
2022-12-03T21:07:09.162Z,35.07
2022-12-03T21:09:37.377Z,34.27
2022-12-03T21:12:05.962Z,67.57
2022-12-03T21:14:35.595Z,55.13
2022-12-03T21:17:08.698Z,46.97
2022-12-03T21:19:39.021Z,31.63
2022-12-03T21:22:07.334Z,32.53
2022-12-03T21:24:35.937Z,33.13
2022-12-03T21:27:04.467Z,32.50
2022-12-03T21:29:32.665Z,31.10
2022-12-03T21:32:00.855Z,33.23
2022-12-03T21:34:35.587Z,30.37
2022-12-03T21:37:05.851Z,26.53
2022-12-03T21:39:34.124Z,29.83
2022-12-03T21:42:34.054Z,31.17
2022-12-03T21:44:50.845Z,33.33
2022-12-03T21:47:19.111Z,25.50
2022-12-03T21:49:47.339Z,26.73
2022-12-03T21:52:16.944Z,28.83
2022-12-03T21:54:45.318Z,25.27
2022-12-03T21:57:13.701Z,25.53
2022-12-03T21:59:44.308Z,27.10
2022-12-03T22:02:12.700Z,25.43
2022-12-03T22:04:41.528Z,28.97
2022-12-03T22:07:11.188Z,30.57
2022-12-03T22:09:40.864Z,30.03
2022-12-03T22:12:09.195Z,29.27
2022-12-03T22:14:37.519Z,29.10
2022-12-03T22:17:05.704Z,35.10
2022-12-03T22:19:34.113Z,31.00
2022-12-03T22:22:02.369Z,32.70
2022-12-03T22:24:30.731Z,34.60
2022-12-03T22:27:00.346Z,31.87
2022-12-03T22:29:28.654Z,37.43
2022-12-03T22:31:56.857Z,32.10
2022-12-03T22:34:25.432Z,34.60
2022-12-03T22:36:53.605Z,32.57
2022-12-03T22:39:21.973Z,33.27
2022-12-03T22:41:50.242Z,37.03
2022-12-03T22:44:19.889Z,33.13
2022-12-03T22:46:48.218Z,37.90
2022-12-03T22:49:16.573Z,37.40
2022-12-03T22:51:46.681Z,36.63
2022-12-03T22:54:18.133Z,34.97
2022-12-03T22:56:49.078Z,32.23
2022-12-03T22:59:17.291Z,36.90
2022-12-03T23:01:47.452Z,38.93
2022-12-03T23:04:15.718Z,37.27
2022-12-03T23:06:44.631Z,40.50
2022-12-03T23:09:12.938Z,37.70
2022-12-03T23:11:41.223Z,37.27
2022-12-03T23:14:09.430Z,34.30
2022-12-03T23:16:37.653Z,38.20
2022-12-03T23:19:07.272Z,37.63
2022-12-03T23:21:36.389Z,38.20
2022-12-03T23:24:06.138Z,41.90
2022-12-03T23:26:36.908Z,39.03
2022-12-03T23:29:05.751Z,34.27
2022-12-03T23:31:34.996Z,36.33
2022-12-03T23:34:03.497Z,32.27
2022-12-03T23:36:34.516Z,30.60
2022-12-03T23:39:02.859Z,31.03
2022-12-03T23:41:31.226Z,30.43
2022-12-03T23:43:59.562Z,31.13
2022-12-03T23:46:28.882Z,34.90
2022-12-03T23:48:59.613Z,29.97
2022-12-03T23:51:28.500Z,30.83
2022-12-03T23:54:04.098Z,30.03
2022-12-03T23:56:32.485Z,36.77
2022-12-03T23:59:00.919Z,29.70
